Kezdőlap
METAR-TAF:

METAR-TAF

Repülőterek :

El Salvador nemzetközi repülőtér

Salvador, El Salvador

földrajzi szélesség: 13-26N, földrajzi hosszúság: 089-03W, magasság: 25 m

Jelenlegi meteorológiai megfigyelések

A jelentés 1 órával és 1 perccel ezelõtt készült, 22:50 UTC
Északi szél 11 kt, északnyugati és északi között változik
Hőmérséklet 32°C
Páratartalom 41%
Légköri nyomás 1012 hPa
Látótávolság: 2500 m
füst

METAR: MSLP 282250Z 35011KT 310V010 9999 2500SE FU NSC 32/17 Q1012 A2989 NOSIG

Idő: 17:51 (23:51 UTC)

Előrejelzés

A jelentés 2 órával és 26 perccel ezelõtt készült, 21:25 UTC
Az előrejelzés 29-én 00 óra UTC és 29-én 24 óra UTC között érvényes
Északi szél 18 kt széllökések: 30 kt
Látótávolság 10 km, vagy több
felhőtlen 1500 m magasságban, és nincs gomolyfelhõ

TAF: MSLP 282125Z 2900/2924 01018G30KT CAVOK TX37/2919Z TN22/2912Z

Meteorológiai megfigyelések és előrejelzések több, mint 4000 repülőtéren (METAR és TAF jelentéseket).

A térképen piros és sárga pontok jelzik az elérhető meteorológiai állomásokat.

Mozgassa az egeret a pont fölött, hogy megjelenjen az állomás neve.

Azután kattintson az időjárási megfigyelések és előrejelzések megtekintéséhez.

A térkép megváltoztatása: kattintson a fekete keresztel jelölt zöld gombra ráközelítéshez, a vonallal jelölt zöld gombra távolításhoz, vagy a zöld nyilakra a szomszédos térképek eléréséhez.


METAR-TAF: